createdAt,value
2023-05-06T00:00:58.380Z,97594.63
2023-05-06T00:03:27.724Z,97598.84
2023-05-06T00:06:04.259Z,97599.28
2023-05-06T00:08:37.045Z,97597.72
2023-05-06T00:11:17.637Z,97595.03
2023-05-06T00:13:51.613Z,97599.69
2023-05-06T00:16:24.913Z,97592.47
2023-05-06T00:19:04.174Z,97590.63
2023-05-06T00:21:42.175Z,97581.59
2023-05-06T00:24:16.797Z,97591.72
2023-05-06T00:26:45.960Z,97592.03
2023-05-06T00:29:15.134Z,97587.31
2023-05-06T00:31:45.563Z,97584.06
2023-05-06T00:34:15.046Z,97585.88
2023-05-06T00:36:46.512Z,97588.69
2023-05-06T00:39:22.137Z,97585.72
2023-05-06T00:41:55.056Z,97580.34
2023-05-06T00:44:29.911Z,97574.16
2023-05-06T00:47:01.447Z,97574.88
2023-05-06T00:49:39.829Z,97575.03
2023-05-06T00:52:08.761Z,97570.88
2023-05-06T00:54:50.595Z,97573.72
2023-05-06T00:57:25.275Z,97577.09
2023-05-06T00:59:56.035Z,97576.19
2023-05-06T01:02:39.563Z,97571.56
2023-05-06T01:05:19.097Z,97571.84
2023-05-06T01:08:01.115Z,97567.31
2023-05-06T01:10:40.153Z,97579.69
2023-05-06T01:13:16.171Z,97572.06
2023-05-06T01:15:50.781Z,97572.63
2023-05-06T01:18:20.537Z,97575.69
2023-05-06T01:20:57.825Z,97571.31
2023-05-06T01:23:29.332Z,97565.09
2023-05-06T01:25:58.307Z,97578.91
2023-05-06T01:38:47.478Z,97581.06
2023-05-06T01:41:17.033Z,97583.56
2023-05-06T01:43:45.678Z,97582.88
2023-05-06T01:46:16.587Z,97573.88
2023-05-06T01:48:44.855Z,97565.84
2023-05-06T01:51:13.013Z,97574.84
2023-05-06T01:53:41.498Z,97575.28
2023-05-06T01:56:11.041Z,97582.03
2023-05-06T01:58:39.295Z,97574.38
2023-05-06T02:01:07.790Z,97575.22
2023-05-06T02:03:37.681Z,97577.91
2023-05-06T02:06:06.189Z,97570.09
2023-05-06T02:08:34.288Z,97572.00
2023-05-06T02:11:02.512Z,97574.34
2023-05-06T02:13:32.388Z,97568.81
2023-05-06T02:16:00.637Z,97575.41
2023-05-06T02:18:28.832Z,97569.19
2023-05-06T02:20:57.105Z,97568.41
2023-05-06T02:23:25.241Z,97572.00
2023-05-06T02:25:53.367Z,97562.06
2023-05-06T02:28:21.510Z,97557.38
2023-05-06T02:30:51.355Z,97556.06
2023-05-06T02:33:19.541Z,97556.47
2023-05-06T02:35:47.732Z,97560.38
2023-05-06T02:38:15.905Z,97552.44
2023-05-06T02:40:43.982Z,97549.41
2023-05-06T02:43:12.422Z,97548.41
2023-05-06T02:45:40.670Z,97555.53
2023-05-06T02:48:10.307Z,97544.03
2023-05-06T02:50:38.397Z,97549.28
2023-05-06T02:53:06.622Z,97547.69
2023-05-06T02:55:34.789Z,97549.34
2023-05-06T02:58:03.279Z,97550.50
2023-05-06T03:00:31.441Z,97546.78
2023-05-06T03:02:59.610Z,97561.09
2023-05-06T03:05:29.307Z,97553.78
2023-05-06T03:07:57.718Z,97548.38
2023-05-06T03:10:25.983Z,97555.59
2023-05-06T03:12:54.238Z,97549.09
2023-05-06T03:15:22.429Z,97550.72
2023-05-06T03:17:50.608Z,97558.94
2023-05-06T03:20:18.901Z,97561.50
2023-05-06T03:22:48.433Z,97561.25
2023-05-06T03:25:16.711Z,97564.84
2023-05-06T03:27:44.828Z,97568.22
2023-05-06T03:30:13.781Z,97565.09
2023-05-06T03:32:41.999Z,97568.22
2023-05-06T03:35:11.733Z,97562.41
2023-05-06T03:37:40.174Z,97568.50
2023-05-06T03:40:10.993Z,97570.72
2023-05-06T03:42:39.113Z,97577.56
2023-05-06T03:45:08.869Z,97575.94
2023-05-06T03:47:38.255Z,97580.25
2023-05-06T03:50:07.336Z,97567.66
2023-05-06T03:52:35.605Z,97575.50
2023-05-06T03:55:03.762Z,97576.91
2023-05-06T03:57:33.380Z,97571.50
2023-05-06T04:00:01.577Z,97568.09
2023-05-06T04:02:30.232Z,97571.63
2023-05-06T04:04:58.630Z,97573.19
2023-05-06T04:07:26.776Z,97571.44
2023-05-06T04:09:55.876Z,97558.47
2023-05-06T04:12:24.090Z,97554.13
2023-05-06T04:14:53.672Z,97562.47
2023-05-06T04:17:21.873Z,97568.94
2023-05-06T04:19:50.069Z,97567.00
2023-05-06T04:22:18.843Z,97560.13
2023-05-06T04:24:47.063Z,97560.84
2023-05-06T04:27:15.194Z,97568.16
2023-05-06T04:29:43.423Z,97574.41
2023-05-06T04:32:13.756Z,97567.34
2023-05-06T04:34:41.921Z,97571.91
2023-05-06T04:37:10.353Z,97571.25
2023-05-06T04:39:39.457Z,97570.16
2023-05-06T04:42:07.980Z,97568.38
2023-05-06T04:44:36.723Z,97572.75
2023-05-06T04:47:04.899Z,97571.22
2023-05-06T04:49:34.698Z,97575.34
2023-05-06T04:52:02.889Z,97582.84
2023-05-06T04:54:31.005Z,97576.66
2023-05-06T04:56:59.207Z,97577.25
2023-05-06T04:59:27.563Z,97575.59
2023-05-06T05:01:55.672Z,97578.41
2023-05-06T05:04:23.901Z,97581.31
2023-05-06T05:06:53.394Z,97588.22
2023-05-06T05:09:21.612Z,97589.25
2023-05-06T05:11:49.781Z,97586.88
2023-05-06T05:14:17.937Z,97591.66
2023-05-06T05:16:46.177Z,97585.47
2023-05-06T05:19:14.364Z,97590.44
2023-05-06T05:21:42.532Z,97591.69
2023-05-06T05:24:12.164Z,97593.50
2023-05-06T05:26:40.246Z,97593.13
2023-05-06T05:29:08.393Z,97592.41
2023-05-06T05:31:36.994Z,97589.72
2023-05-06T05:34:05.156Z,97598.06
2023-05-06T05:36:33.250Z,97603.88
2023-05-06T05:39:01.460Z,97602.16
2023-05-06T05:41:30.988Z,97601.72
2023-05-06T05:43:59.062Z,97601.16
2023-05-06T05:46:27.210Z,97612.34
2023-05-06T05:48:56.664Z,97612.75
2023-05-06T05:51:24.673Z,97611.88
2023-05-06T05:53:53.413Z,97613.72
2023-05-06T05:56:21.657Z,97612.59
2023-05-06T05:58:53.833Z,97609.06
2023-05-06T06:01:22.140Z,97611.16
2023-05-06T06:03:50.544Z,97609.31
2023-05-06T06:06:18.835Z,97613.97
2023-05-06T06:08:46.992Z,97609.16
2023-05-06T06:11:15.157Z,97607.91
2023-05-06T06:13:43.755Z,97615.50
2023-05-06T06:16:13.446Z,97616.19
2023-05-06T06:18:47.023Z,97617.19
2023-05-06T06:21:15.891Z,97615.75
2023-05-06T06:23:44.058Z,97619.25
2023-05-06T06:26:13.601Z,97614.56
2023-05-06T06:28:42.156Z,97614.78
2023-05-06T06:31:10.418Z,97601.06
2023-05-06T06:33:40.048Z,97609.63
2023-05-06T06:36:09.486Z,97604.19
2023-05-06T06:38:37.606Z,97602.59
2023-05-06T06:41:06.205Z,97601.28
2023-05-06T06:43:34.356Z,97603.91
2023-05-06T06:46:02.711Z,97604.69
2023-05-06T06:48:31.440Z,97605.66
2023-05-06T06:51:01.118Z,97610.25
2023-05-06T06:53:29.620Z,97611.91
2023-05-06T06:55:57.971Z,97607.69
2023-05-06T06:58:26.137Z,97612.25
2023-05-06T07:00:55.718Z,97605.47
2023-05-06T07:03:23.959Z,97609.94
2023-05-06T07:05:52.190Z,97606.47
2023-05-06T07:08:22.421Z,97608.53
2023-05-06T07:10:50.661Z,97608.00
2023-05-06T07:13:20.716Z,97607.16
2023-05-06T07:15:48.963Z,97615.69
2023-05-06T07:18:17.266Z,97617.78
2023-05-06T07:20:45.488Z,97613.81
2023-05-06T07:23:14.006Z,97616.09
2023-05-06T07:25:43.714Z,97615.06
2023-05-06T07:28:13.146Z,97605.06
2023-05-06T07:30:41.889Z,97614.56
2023-05-06T07:33:10.157Z,97610.97
2023-05-06T07:35:38.338Z,97610.94
2023-05-06T07:38:06.671Z,97604.28
2023-05-06T07:40:35.071Z,97608.41
2023-05-06T07:43:04.750Z,97606.00
2023-05-06T07:45:34.792Z,97598.81
2023-05-06T07:48:03.192Z,97602.38
2023-05-06T07:50:31.830Z,97608.66
2023-05-06T07:53:00.711Z,97596.03
2023-05-06T07:55:29.777Z,97602.31
2023-05-06T07:57:58.018Z,97606.78
2023-05-06T08:00:28.155Z,97608.50
2023-05-06T08:02:56.493Z,97616.22
2023-05-06T08:05:24.816Z,97617.34
2023-05-06T08:07:54.240Z,97622.84
2023-05-06T08:10:23.141Z,97617.59
2023-05-06T08:12:51.429Z,97619.56
2023-05-06T08:15:19.779Z,97623.72
2023-05-06T08:17:50.035Z,97626.44
2023-05-06T08:20:18.191Z,97627.25
2023-05-06T08:22:46.470Z,97625.59
2023-05-06T08:25:22.652Z,97623.88
2023-05-06T08:27:53.177Z,97621.91
2023-05-06T08:30:21.960Z,97625.25
2023-05-06T08:32:58.925Z,97620.56
2023-05-06T08:35:27.092Z,97625.84
2023-05-06T08:37:55.362Z,97620.16
2023-05-06T08:40:24.758Z,97624.66
2023-05-06T08:42:53.001Z,97622.50
2023-05-06T08:45:21.675Z,97611.03
2023-05-06T08:47:54.588Z,97608.16
2023-05-06T08:50:26.216Z,97617.13
2023-05-06T08:53:04.897Z,97615.56
2023-05-06T08:55:34.476Z,97610.13
2023-05-06T08:58:04.476Z,97601.53
2023-05-06T09:00:45.145Z,97601.50
2023-05-06T09:03:17.383Z,97596.53
2023-05-06T09:05:47.417Z,97601.31
2023-05-06T09:08:16.141Z,97602.03
2023-05-06T09:10:46.279Z,97606.56
2023-05-06T09:13:16.703Z,97602.31
2023-05-06T09:15:47.528Z,97603.53
2023-05-06T09:18:22.759Z,97597.09
2023-05-06T09:20:59.387Z,97586.72
2023-05-06T09:23:33.485Z,97585.00
2023-05-06T09:26:07.453Z,97587.28
2023-05-06T09:28:36.972Z,97586.81
2023-05-06T09:31:10.249Z,97583.59
2023-05-06T09:33:45.755Z,97587.44
2023-05-06T09:36:14.513Z,97581.53
2023-05-06T09:38:43.791Z,97580.81
2023-05-06T09:41:17.406Z,97578.16
2023-05-06T09:43:49.979Z,97578.03
2023-05-06T09:46:20.387Z,97577.84
2023-05-06T09:48:54.293Z,97572.50
2023-05-06T09:51:26.859Z,97568.50
2023-05-06T09:54:02.594Z,97568.69
2023-05-06T09:56:37.380Z,97562.97
2023-05-06T09:59:08.269Z,97558.44
2023-05-06T10:01:38.325Z,97566.94
2023-05-06T10:04:12.919Z,97558.81
2023-05-06T10:06:43.021Z,97554.13
2023-05-06T10:12:30.114Z,97551.69
2023-05-06T10:14:58.517Z,97543.03
2023-05-06T10:17:27.677Z,97539.66
2023-05-06T10:19:58.992Z,97539.53
2023-05-06T10:22:34.940Z,97533.91
2023-05-06T10:25:12.163Z,97537.09
2023-05-06T10:27:50.199Z,97543.16
2023-05-06T10:30:20.677Z,97533.81
2023-05-06T10:39:48.365Z,97526.84
2023-05-06T10:42:18.698Z,97533.25
2023-05-06T10:45:08.612Z,97519.25
2023-05-06T10:48:33.594Z,97519.13
2023-05-06T10:51:26.126Z,97517.63
2023-05-06T10:54:06.998Z,97521.31
2023-05-06T10:56:38.096Z,97523.72
2023-05-06T10:59:18.836Z,97529.84
2023-05-06T11:01:52.498Z,97518.97
2023-05-06T11:04:21.178Z,97517.41
2023-05-06T11:06:51.004Z,97511.66
2023-05-06T11:13:02.191Z,97516.31
2023-05-06T11:16:21.518Z,97517.63
2023-05-06T11:20:09.853Z,97511.44
2023-05-06T11:22:45.992Z,97515.03
2023-05-06T11:25:18.729Z,97509.03
2023-05-06T11:27:50.264Z,97500.19
2023-05-06T11:30:19.785Z,97499.84
2023-05-06T11:32:48.102Z,97502.97
2023-05-06T11:35:18.722Z,97497.34
2023-05-06T11:37:48.800Z,97496.38
2023-05-06T11:40:19.498Z,97498.41
2023-05-06T11:42:49.324Z,97498.44
2023-05-06T11:45:19.209Z,97496.00
2023-05-06T11:47:48.949Z,97494.22
2023-05-06T11:50:23.526Z,97496.50
2023-05-06T11:52:52.583Z,97482.88
2023-05-06T11:55:23.375Z,97489.69
2023-05-06T11:57:59.162Z,97496.84
2023-05-06T12:00:41.125Z,97488.69
2023-05-06T12:03:44.006Z,97485.44
2023-05-06T12:06:14.557Z,97482.34
2023-05-06T12:08:44.348Z,97478.34
2023-05-06T12:11:21.981Z,97482.13
2023-05-06T12:14:07.381Z,97484.63
2023-05-06T12:17:00.771Z,97486.88
2023-05-06T12:19:35.097Z,97485.78
2023-05-06T12:22:21.458Z,97481.13
2023-05-06T12:24:54.566Z,97481.19
2023-05-06T12:27:38.452Z,97482.56
2023-05-06T12:30:38.042Z,97479.16
2023-05-06T12:33:08.926Z,97483.34
2023-05-06T12:35:38.298Z,97475.59
2023-05-06T12:38:11.394Z,97474.56
2023-05-06T12:41:08.180Z,97471.03
2023-05-06T12:44:16.934Z,97476.91
2023-05-06T12:46:53.426Z,97473.16
2023-05-06T12:49:22.784Z,97476.28
2023-05-06T12:52:07.005Z,97477.50
2023-05-06T12:54:37.620Z,97476.00
2023-05-06T12:57:08.554Z,97469.50
2023-05-06T12:59:39.678Z,97470.09
2023-05-06T13:02:10.362Z,97469.69
2023-05-06T13:04:45.518Z,97466.13
2023-05-06T13:07:15.406Z,97467.94
2023-05-06T13:09:47.195Z,97463.19
2023-05-06T13:12:17.850Z,97462.19
2023-05-06T13:14:48.693Z,97463.22
2023-05-06T13:17:18.179Z,97459.47
2023-05-06T13:19:46.491Z,97459.91
2023-05-06T13:22:19.064Z,97460.06
2023-05-06T13:24:48.772Z,97451.72
2023-05-06T13:27:17.584Z,97448.31
2023-05-06T13:29:48.685Z,97447.25
2023-05-06T13:32:18.069Z,97452.69
2023-05-06T13:34:46.852Z,97446.44
2023-05-06T13:37:16.701Z,97443.47
2023-05-06T13:39:47.063Z,97434.91
2023-05-06T13:42:37.533Z,97445.78
2023-05-06T13:45:09.364Z,97437.41
2023-05-06T13:47:37.997Z,97447.09
2023-05-06T13:50:09.044Z,97441.00
2023-05-06T13:52:41.089Z,97436.16
2023-05-06T13:55:20.408Z,97436.13
2023-05-06T14:02:01.270Z,97435.09
2023-05-06T14:04:31.074Z,97438.00
2023-05-06T14:06:59.993Z,97436.38
2023-05-06T14:09:34.803Z,97428.41
2023-05-06T14:12:03.153Z,97422.53
2023-05-06T14:14:31.610Z,97425.69
2023-05-06T14:17:01.561Z,97422.50
2023-05-06T14:19:31.697Z,97426.09
2023-05-06T14:22:02.516Z,97425.44
2023-05-06T14:24:32.299Z,97422.94
2023-05-06T14:27:02.055Z,97424.53
2023-05-06T14:29:32.585Z,97416.63
2023-05-06T14:32:23.814Z,97421.84
2023-05-06T14:35:04.807Z,97427.31
2023-05-06T14:37:36.410Z,97428.81
2023-05-06T14:40:10.149Z,97428.25
2023-05-06T14:42:38.591Z,97431.72
2023-05-06T14:45:09.782Z,97422.97
2023-05-06T14:47:40.009Z,97425.69
2023-05-06T14:50:13.208Z,97435.28
2023-05-06T14:52:42.152Z,97433.56
2023-05-06T14:55:21.414Z,97433.50
2023-05-06T14:57:53.948Z,97432.97
2023-05-06T15:00:29.423Z,97432.13
2023-05-06T15:03:09.890Z,97432.13
2023-05-06T15:05:41.833Z,97433.50
2023-05-06T15:08:12.757Z,97434.03
2023-05-06T15:10:41.422Z,97430.66
2023-05-06T15:13:09.690Z,97430.59
2023-05-06T15:15:37.999Z,97433.81
2023-05-06T15:18:09.200Z,97442.03
2023-05-06T15:20:39.169Z,97453.66
2023-05-06T15:23:07.381Z,97466.06
2023-05-06T15:25:36.853Z,97481.69
2023-05-06T15:28:06.174Z,97492.84
2023-05-06T15:30:34.430Z,97484.94
2023-05-06T15:33:11.934Z,97495.13
2023-05-06T15:35:48.457Z,97499.56
2023-05-06T15:38:17.122Z,97510.94
2023-05-06T15:40:47.338Z,97518.84
2023-05-06T15:43:22.701Z,97522.88
2023-05-06T15:45:52.311Z,97527.03
2023-05-06T15:48:20.649Z,97527.72
2023-05-06T15:50:50.312Z,97533.16
2023-05-06T15:53:20.237Z,97529.97
2023-05-06T15:55:56.558Z,97539.94
2023-05-06T15:58:30.620Z,97535.59
2023-05-06T16:00:58.898Z,97541.66
2023-05-06T16:03:27.905Z,97538.13
2023-05-06T16:05:59.536Z,97542.69
2023-05-06T16:08:27.822Z,97538.13
2023-05-06T16:10:56.105Z,97540.00
2023-05-06T16:13:24.470Z,97531.03
2023-05-06T16:15:52.816Z,97544.56
2023-05-06T16:18:21.509Z,97538.13
2023-05-06T16:20:49.747Z,97541.22
2023-05-06T16:23:21.439Z,97539.47
2023-05-06T16:25:49.690Z,97534.75
2023-05-06T16:28:17.964Z,97536.44
2023-05-06T16:30:46.549Z,97532.72
2023-05-06T16:33:14.959Z,97532.03
2023-05-06T16:35:43.219Z,97531.84
2023-05-06T16:38:20.352Z,97523.38
2023-05-06T16:40:53.629Z,97519.69
2023-05-06T16:43:22.224Z,97511.19
2023-05-06T16:45:50.480Z,97510.84
2023-05-06T16:48:18.894Z,97513.06
2023-05-06T16:50:47.547Z,97507.81
2023-05-06T16:53:17.415Z,97509.81
2023-05-06T16:55:48.849Z,97502.69
2023-05-06T16:58:18.676Z,97504.72
2023-05-06T17:00:47.061Z,97498.47
2023-05-06T17:03:15.662Z,97502.69
2023-05-06T17:05:44.475Z,97498.31
2023-05-06T17:08:13.776Z,97495.00
2023-05-06T17:10:43.754Z,97487.88
2023-05-06T17:13:12.206Z,97484.47
2023-05-06T17:15:43.329Z,97489.91
2023-05-06T17:18:11.653Z,97489.25
2023-05-06T17:20:54.503Z,97491.66
2023-05-06T17:23:24.891Z,97487.84
2023-05-06T17:25:53.110Z,97479.22
2023-05-06T17:28:21.380Z,97485.28
2023-05-06T17:30:51.045Z,97480.88
2023-05-06T17:33:19.337Z,97486.31
2023-05-06T17:35:47.663Z,97482.28
2023-05-06T17:38:16.947Z,97476.81
2023-05-06T17:40:45.190Z,97476.47
2023-05-06T17:43:22.869Z,97476.84
2023-05-06T17:45:52.646Z,97485.09
2023-05-06T17:48:20.969Z,97486.63
2023-05-06T17:50:49.546Z,97475.75
2023-05-06T17:53:17.805Z,97475.81
2023-05-06T17:55:46.156Z,97475.31
2023-05-06T17:58:14.853Z,97476.69
2023-05-06T18:00:43.214Z,97471.78
2023-05-06T18:03:12.959Z,97478.97
2023-05-06T18:05:41.257Z,97468.28
2023-05-06T18:08:09.777Z,97477.22
2023-05-06T18:10:44.817Z,97477.97
2023-05-06T18:13:16.032Z,97479.16
2023-05-06T18:15:44.344Z,97484.19
2023-05-06T18:18:14.170Z,97478.09
2023-05-06T18:20:43.107Z,97484.75
2023-05-06T18:23:11.369Z,97495.75
2023-05-06T18:25:39.663Z,97496.56
2023-05-06T18:28:07.847Z,97494.56
2023-05-06T18:30:36.919Z,97500.09
2023-05-06T18:33:05.329Z,97503.00
2023-05-06T18:35:34.995Z,97495.53
2023-05-06T18:38:03.610Z,97501.00
2023-05-06T18:40:32.120Z,97503.97
2023-05-06T18:43:00.374Z,97500.28
2023-05-06T18:45:29.580Z,97506.34
2023-05-06T18:47:57.930Z,97506.69
2023-05-06T18:50:26.191Z,97505.50
2023-05-06T18:52:56.633Z,97509.75
2023-05-06T18:55:24.893Z,97516.53
2023-05-06T18:57:54.078Z,97524.78
2023-05-06T19:00:23.061Z,97520.38
2023-05-06T19:02:51.287Z,97528.31
2023-05-06T19:05:19.654Z,97529.84
2023-05-06T19:07:48.263Z,97520.72
2023-05-06T19:10:18.028Z,97528.97
2023-05-06T19:12:46.882Z,97528.97
2023-05-06T19:15:15.455Z,97532.19
2023-05-06T19:17:43.789Z,97537.06
2023-05-06T19:20:14.453Z,97534.22
2023-05-06T19:22:42.929Z,97545.00
2023-05-06T19:25:12.378Z,97539.44
2023-05-06T19:27:42.182Z,97536.38
2023-05-06T19:30:11.579Z,97531.78
2023-05-06T19:32:40.517Z,97541.28
2023-05-06T19:35:24.242Z,97533.00
2023-05-06T19:37:52.551Z,97522.00
2023-05-06T19:40:22.013Z,97533.63
2023-05-06T19:42:52.084Z,97524.38
2023-05-06T19:45:20.470Z,97530.25
2023-05-06T19:47:48.717Z,97539.66
2023-05-06T19:50:17.698Z,97527.19
2023-05-06T19:52:45.934Z,97532.91
2023-05-06T19:55:14.287Z,97536.66
2023-05-06T19:57:42.544Z,97535.13
2023-05-06T20:00:14.142Z,97536.81
2023-05-06T20:02:42.429Z,97535.47
2023-05-06T20:05:11.574Z,97548.28
2023-05-06T20:07:41.355Z,97542.34
2023-05-06T20:10:13.569Z,97545.47
2023-05-06T20:12:43.199Z,97537.69
2023-05-06T20:15:13.552Z,97533.97
2023-05-06T20:17:42.121Z,97537.34
2023-05-06T20:20:11.592Z,97534.13
2023-05-06T20:22:40.298Z,97530.56
2023-05-06T20:25:10.427Z,97529.25
2023-05-06T20:27:39.293Z,97528.69
2023-05-06T20:30:09.712Z,97531.94
2023-05-06T20:32:41.062Z,97528.53
2023-05-06T20:35:10.196Z,97534.59
2023-05-06T20:37:38.830Z,97537.63
2023-05-06T20:40:09.867Z,97534.97
2023-05-06T20:42:38.055Z,97536.81
2023-05-06T20:45:07.669Z,97533.47
2023-05-06T20:47:38.831Z,97526.38
2023-05-06T20:50:07.866Z,97535.94
2023-05-06T20:52:36.187Z,97532.94
2023-05-06T20:55:07.379Z,97532.47
2023-05-06T20:57:37.110Z,97538.31
2023-05-06T21:00:07.914Z,97534.13
2023-05-06T21:02:49.559Z,97534.34
2023-05-06T21:05:19.239Z,97526.72
2023-05-06T21:07:47.493Z,97528.91
2023-05-06T21:10:15.900Z,97532.66
2023-05-06T21:12:48.624Z,97530.09
2023-05-06T21:15:16.917Z,97534.69
2023-05-06T21:17:46.982Z,97527.09
2023-05-06T21:20:17.369Z,97526.75
2023-05-06T21:22:45.748Z,97525.25
2023-05-06T21:25:14.550Z,97523.16
2023-05-06T21:27:43.194Z,97525.72
2023-05-06T21:30:12.078Z,97527.22
2023-05-06T21:32:40.360Z,97529.91
2023-05-06T21:35:10.848Z,97528.59
2023-05-06T21:37:39.413Z,97526.38
2023-05-06T21:40:08.878Z,97532.47
2023-05-06T21:42:37.167Z,97524.31
2023-05-06T21:45:06.163Z,97523.00
2023-05-06T21:47:34.452Z,97527.38
2023-05-06T21:50:02.951Z,97531.28
2023-05-06T21:52:32.668Z,97524.53
2023-05-06T21:55:01.273Z,97525.88
2023-05-06T21:57:30.287Z,97532.66
2023-05-06T21:59:58.566Z,97529.59
2023-05-06T22:02:26.987Z,97520.47
2023-05-06T22:04:55.349Z,97526.34
2023-05-06T22:07:23.624Z,97526.50
2023-05-06T22:09:53.327Z,97527.31
2023-05-06T22:12:21.919Z,97528.50
2023-05-06T22:14:50.224Z,97531.53
2023-05-06T22:17:18.487Z,97518.03
2023-05-06T22:19:47.992Z,97527.34
2023-05-06T22:22:16.710Z,97525.94
2023-05-06T22:24:45.002Z,97525.25
2023-05-06T22:27:16.968Z,97517.00
2023-05-06T22:29:45.217Z,97517.38
2023-05-06T22:32:13.768Z,97515.78
2023-05-06T22:34:41.974Z,97514.63
2023-05-06T22:37:10.507Z,97511.41
2023-05-06T22:39:39.238Z,97510.06
2023-05-06T22:42:08.564Z,97519.56
2023-05-06T22:44:39.606Z,97515.72
2023-05-06T22:47:07.950Z,97519.06
2023-05-06T22:49:36.497Z,97512.50
2023-05-06T22:52:04.997Z,97513.19
2023-05-06T22:54:33.248Z,97513.50
2023-05-06T22:57:02.242Z,97526.75
2023-05-06T22:59:30.417Z,97518.94
2023-05-06T23:02:00.124Z,97513.34
2023-05-06T23:04:28.409Z,97508.47
2023-05-06T23:06:57.484Z,97514.53
2023-05-06T23:09:25.841Z,97511.44
2023-05-06T23:11:54.003Z,97511.19
2023-05-06T23:14:22.875Z,97513.81
2023-05-06T23:16:51.218Z,97511.44
2023-05-06T23:19:21.784Z,97509.19
2023-05-06T23:21:50.070Z,97512.69
2023-05-06T23:24:18.310Z,97516.63
2023-05-06T23:26:46.525Z,97512.38
2023-05-06T23:29:16.138Z,97507.88
2023-05-06T23:31:44.371Z,97509.97
2023-05-06T23:34:12.623Z,97512.38
2023-05-06T23:36:51.839Z,97518.69
2023-05-06T23:39:20.071Z,97513.38
2023-05-06T23:41:48.255Z,97507.44
2023-05-06T23:44:16.484Z,97505.72
2023-05-06T23:46:44.780Z,97513.38
2023-05-06T23:49:13.110Z,97510.22
2023-05-06T23:51:41.559Z,97506.84
2023-05-06T23:54:11.235Z,97508.28
2023-05-06T23:56:39.452Z,97511.69
2023-05-06T23:59:07.693Z,97509.13
